sensor_id;sensor_type;location;lat;lon;timestamp;P1;durP1;ratioP1;P2;durP2;ratioP2
6300;SDS011;3183;51.010;6.898;2023-03-14T00:00:49;4.03;;;2.20;;
6300;SDS011;3183;51.010;6.898;2023-03-14T00:03:16;3.80;;;1.77;;
6300;SDS011;3183;51.010;6.898;2023-03-14T00:05:45;8.03;;;1.57;;
6300;SDS011;3183;51.010;6.898;2023-03-14T00:08:12;5.67;;;1.57;;
6300;SDS011;3183;51.010;6.898;2023-03-14T00:10:39;3.63;;;1.53;;
6300;SDS011;3183;51.010;6.898;2023-03-14T00:13:06;3.50;;;1.53;;
6300;SDS011;3183;51.010;6.898;2023-03-14T00:15:33;4.97;;;2.03;;
6300;SDS011;3183;51.010;6.898;2023-03-14T00:18:01;7.27;;;1.70;;
6300;SDS011;3183;51.010;6.898;2023-03-14T00:20:28;8.60;;;2.00;;
6300;SDS011;3183;51.010;6.898;2023-03-14T00:22:56;5.47;;;1.40;;
6300;SDS011;3183;51.010;6.898;2023-03-14T00:25:24;3.50;;;1.30;;
6300;SDS011;3183;51.010;6.898;2023-03-14T00:27:51;3.77;;;1.40;;
6300;SDS011;3183;51.010;6.898;2023-03-14T00:30:18;5.47;;;1.37;;
6300;SDS011;3183;51.010;6.898;2023-03-14T00:32:45;6.47;;;1.40;;
6300;SDS011;3183;51.010;6.898;2023-03-14T00:35:12;7.43;;;1.80;;
6300;SDS011;3183;51.010;6.898;2023-03-14T00:37:39;11.50;;;1.70;;
6300;SDS011;3183;51.010;6.898;2023-03-14T00:40:09;4.37;;;1.97;;
6300;SDS011;3183;51.010;6.898;2023-03-14T00:42:36;6.83;;;1.73;;
6300;SDS011;3183;51.010;6.898;2023-03-14T00:45:03;8.73;;;1.90;;
6300;SDS011;3183;51.010;6.898;2023-03-14T00:47:32;10.70;;;1.80;;
6300;SDS011;3183;51.010;6.898;2023-03-14T00:49:59;3.70;;;1.10;;
6300;SDS011;3183;51.010;6.898;2023-03-14T00:52:27;3.37;;;1.30;;
6300;SDS011;3183;51.010;6.898;2023-03-14T00:54:54;12.00;;;2.20;;
6300;SDS011;3183;51.010;6.898;2023-03-14T00:57:22;3.00;;;1.07;;
6300;SDS011;3183;51.010;6.898;2023-03-14T00:59:50;6.17;;;1.27;;
6300;SDS011;3183;51.010;6.898;2023-03-14T01:02:18;6.60;;;1.10;;
6300;SDS011;3183;51.010;6.898;2023-03-14T01:04:46;5.33;;;1.23;;
6300;SDS011;3183;51.010;6.898;2023-03-14T01:07:13;14.03;;;1.43;;
6300;SDS011;3183;51.010;6.898;2023-03-14T01:09:41;2.27;;;0.87;;
6300;SDS011;3183;51.010;6.898;2023-03-14T01:12:08;2.90;;;1.00;;
6300;SDS011;3183;51.010;6.898;2023-03-14T01:14:36;4.77;;;1.63;;
6300;SDS011;3183;51.010;6.898;2023-03-14T01:17:03;5.50;;;1.87;;
6300;SDS011;3183;51.010;6.898;2023-03-14T01:19:30;5.97;;;1.23;;
6300;SDS011;3183;51.010;6.898;2023-03-14T01:22:00;9.40;;;1.40;;
6300;SDS011;3183;51.010;6.898;2023-03-14T01:24:30;3.30;;;1.20;;
6300;SDS011;3183;51.010;6.898;2023-03-14T01:27:00;4.20;;;0.90;;
6300;SDS011;3183;51.010;6.898;2023-03-14T01:29:30;3.00;;;1.40;;
6300;SDS011;3183;51.010;6.898;2023-03-14T01:31:58;6.30;;;1.33;;
6300;SDS011;3183;51.010;6.898;2023-03-14T01:34:25;7.40;;;1.17;;
6300;SDS011;3183;51.010;6.898;2023-03-14T01:36:53;3.80;;;1.00;;
6300;SDS011;3183;51.010;6.898;2023-03-14T01:39:20;5.60;;;1.10;;
6300;SDS011;3183;51.010;6.898;2023-03-14T01:41:47;7.50;;;0.97;;
6300;SDS011;3183;51.010;6.898;2023-03-14T01:44:14;6.20;;;1.17;;
6300;SDS011;3183;51.010;6.898;2023-03-14T01:46:42;2.40;;;1.20;;
6300;SDS011;3183;51.010;6.898;2023-03-14T01:49:16;3.83;;;1.03;;
6300;SDS011;3183;51.010;6.898;2023-03-14T01:51:46;2.97;;;1.23;;
6300;SDS011;3183;51.010;6.898;2023-03-14T01:54:17;5.70;;;1.00;;
6300;SDS011;3183;51.010;6.898;2023-03-14T01:56:47;6.70;;;1.33;;
6300;SDS011;3183;51.010;6.898;2023-03-14T01:59:16;6.37;;;1.30;;
6300;SDS011;3183;51.010;6.898;2023-03-14T02:01:44;5.60;;;1.23;;
6300;SDS011;3183;51.010;6.898;2023-03-14T02:04:13;5.07;;;1.10;;
6300;SDS011;3183;51.010;6.898;2023-03-14T02:06:44;4.80;;;1.40;;
6300;SDS011;3183;51.010;6.898;2023-03-14T02:09:13;4.27;;;1.37;;
6300;SDS011;3183;51.010;6.898;2023-03-14T02:11:41;4.37;;;1.03;;
6300;SDS011;3183;51.010;6.898;2023-03-14T02:14:08;4.50;;;1.20;;
6300;SDS011;3183;51.010;6.898;2023-03-14T02:16:36;5.03;;;1.37;;
6300;SDS011;3183;51.010;6.898;2023-03-14T02:19:04;5.93;;;1.37;;
6300;SDS011;3183;51.010;6.898;2023-03-14T02:21:35;4.50;;;0.87;;
6300;SDS011;3183;51.010;6.898;2023-03-14T02:24:07;2.93;;;0.50;;
6300;SDS011;3183;51.010;6.898;2023-03-14T02:26:36;5.33;;;1.33;;
6300;SDS011;3183;51.010;6.898;2023-03-14T02:29:06;1.20;;;0.77;;
6300;SDS011;3183;51.010;6.898;2023-03-14T02:31:33;4.67;;;1.10;;
6300;SDS011;3183;51.010;6.898;2023-03-14T02:34:00;1.87;;;1.00;;
6300;SDS011;3183;51.010;6.898;2023-03-14T02:36:28;5.07;;;1.53;;
6300;SDS011;3183;51.010;6.898;2023-03-14T02:38:58;3.13;;;1.27;;
6300;SDS011;3183;51.010;6.898;2023-03-14T02:41:28;4.67;;;1.17;;
6300;SDS011;3183;51.010;6.898;2023-03-14T02:43:55;2.17;;;1.20;;
6300;SDS011;3183;51.010;6.898;2023-03-14T02:46:24;2.63;;;0.90;;
6300;SDS011;3183;51.010;6.898;2023-03-14T02:48:51;2.40;;;1.13;;
6300;SDS011;3183;51.010;6.898;2023-03-14T02:51:19;2.70;;;0.90;;
6300;SDS011;3183;51.010;6.898;2023-03-14T02:53:47;2.20;;;0.80;;
6300;SDS011;3183;51.010;6.898;2023-03-14T02:56:14;2.23;;;1.00;;
6300;SDS011;3183;51.010;6.898;2023-03-14T02:58:41;5.20;;;0.90;;
6300;SDS011;3183;51.010;6.898;2023-03-14T03:01:08;3.90;;;1.10;;
6300;SDS011;3183;51.010;6.898;2023-03-14T03:03:37;3.30;;;0.80;;
6300;SDS011;3183;51.010;6.898;2023-03-14T03:06:04;4.90;;;0.87;;
6300;SDS011;3183;51.010;6.898;2023-03-14T03:08:31;6.43;;;1.00;;
6300;SDS011;3183;51.010;6.898;2023-03-14T03:10:58;3.43;;;0.90;;
6300;SDS011;3183;51.010;6.898;2023-03-14T03:13:26;2.33;;;0.90;;
6300;SDS011;3183;51.010;6.898;2023-03-14T03:15:53;4.60;;;1.10;;
6300;SDS011;3183;51.010;6.898;2023-03-14T03:18:20;5.03;;;1.13;;
6300;SDS011;3183;51.010;6.898;2023-03-14T03:20:48;2.67;;;0.93;;
6300;SDS011;3183;51.010;6.898;2023-03-14T03:23:16;4.03;;;1.10;;
6300;SDS011;3183;51.010;6.898;2023-03-14T03:25:47;4.70;;;1.10;;
6300;SDS011;3183;51.010;6.898;2023-03-14T03:28:14;5.70;;;1.27;;
6300;SDS011;3183;51.010;6.898;2023-03-14T03:30:42;3.90;;;1.20;;
6300;SDS011;3183;51.010;6.898;2023-03-14T03:33:09;7.93;;;1.73;;
6300;SDS011;3183;51.010;6.898;2023-03-14T03:35:41;9.00;;;1.53;;
6300;SDS011;3183;51.010;6.898;2023-03-14T03:38:09;10.43;;;1.87;;
6300;SDS011;3183;51.010;6.898;2023-03-14T03:40:37;4.37;;;1.30;;
6300;SDS011;3183;51.010;6.898;2023-03-14T03:43:05;10.10;;;1.80;;
6300;SDS011;3183;51.010;6.898;2023-03-14T03:45:32;6.80;;;1.23;;
6300;SDS011;3183;51.010;6.898;2023-03-14T03:47:59;5.80;;;1.63;;
6300;SDS011;3183;51.010;6.898;2023-03-14T03:50:26;4.93;;;1.33;;
6300;SDS011;3183;51.010;6.898;2023-03-14T03:52:53;4.87;;;1.50;;
6300;SDS011;3183;51.010;6.898;2023-03-14T03:55:21;13.63;;;2.40;;
6300;SDS011;3183;51.010;6.898;2023-03-14T03:57:50;8.03;;;1.50;;
6300;SDS011;3183;51.010;6.898;2023-03-14T04:00:17;8.93;;;1.80;;
6300;SDS011;3183;51.010;6.898;2023-03-14T04:02:44;4.40;;;1.90;;
6300;SDS011;3183;51.010;6.898;2023-03-14T04:05:12;8.33;;;1.97;;
6300;SDS011;3183;51.010;6.898;2023-03-14T04:07:39;7.50;;;1.93;;
6300;SDS011;3183;51.010;6.898;2023-03-14T04:10:06;14.20;;;1.70;;
6300;SDS011;3183;51.010;6.898;2023-03-14T04:12:35;12.53;;;2.13;;
6300;SDS011;3183;51.010;6.898;2023-03-14T04:15:02;10.10;;;1.73;;
6300;SDS011;3183;51.010;6.898;2023-03-14T04:17:29;5.07;;;1.20;;
6300;SDS011;3183;51.010;6.898;2023-03-14T04:19:56;10.17;;;1.60;;
6300;SDS011;3183;51.010;6.898;2023-03-14T04:22:23;6.83;;;1.67;;
6300;SDS011;3183;51.010;6.898;2023-03-14T04:24:50;9.50;;;1.63;;
6300;SDS011;3183;51.010;6.898;2023-03-14T04:27:17;2.50;;;1.50;;
6300;SDS011;3183;51.010;6.898;2023-03-14T04:29:46;6.53;;;1.80;;
6300;SDS011;3183;51.010;6.898;2023-03-14T04:32:13;5.70;;;1.47;;
6300;SDS011;3183;51.010;6.898;2023-03-14T04:34:40;7.80;;;1.30;;
6300;SDS011;3183;51.010;6.898;2023-03-14T04:37:07;8.37;;;1.43;;
6300;SDS011;3183;51.010;6.898;2023-03-14T04:39:35;4.87;;;0.90;;
6300;SDS011;3183;51.010;6.898;2023-03-14T04:42:02;4.00;;;1.07;;
6300;SDS011;3183;51.010;6.898;2023-03-14T04:44:29;10.83;;;1.20;;
6300;SDS011;3183;51.010;6.898;2023-03-14T04:46:57;5.70;;;1.63;;
6300;SDS011;3183;51.010;6.898;2023-03-14T04:49:25;9.20;;;1.77;;
6300;SDS011;3183;51.010;6.898;2023-03-14T04:51:52;8.63;;;1.10;;
6300;SDS011;3183;51.010;6.898;2023-03-14T04:54:19;7.80;;;2.20;;
6300;SDS011;3183;51.010;6.898;2023-03-14T04:56:46;6.53;;;1.30;;
6300;SDS011;3183;51.010;6.898;2023-03-14T04:59:13;7.87;;;1.00;;
6300;SDS011;3183;51.010;6.898;2023-03-14T05:01:40;6.57;;;1.20;;
6300;SDS011;3183;51.010;6.898;2023-03-14T05:04:09;4.30;;;1.53;;
6300;SDS011;3183;51.010;6.898;2023-03-14T05:06:36;2.07;;;0.93;;
6300;SDS011;3183;51.010;6.898;2023-03-14T05:09:04;2.53;;;0.60;;
6300;SDS011;3183;51.010;6.898;2023-03-14T05:11:31;5.47;;;0.83;;
6300;SDS011;3183;51.010;6.898;2023-03-14T05:13:58;4.60;;;1.10;;
6300;SDS011;3183;51.010;6.898;2023-03-14T05:16:25;4.00;;;1.13;;
6300;SDS011;3183;51.010;6.898;2023-03-14T05:18:53;5.37;;;0.77;;
6300;SDS011;3183;51.010;6.898;2023-03-14T05:21:21;2.93;;;1.07;;
6300;SDS011;3183;51.010;6.898;2023-03-14T05:23:48;2.63;;;0.80;;
6300;SDS011;3183;51.010;6.898;2023-03-14T05:26:15;2.90;;;0.70;;
6300;SDS011;3183;51.010;6.898;2023-03-14T05:28:42;2.23;;;0.90;;
6300;SDS011;3183;51.010;6.898;2023-03-14T05:31:10;1.80;;;0.97;;
6300;SDS011;3183;51.010;6.898;2023-03-14T05:33:37;1.33;;;0.60;;
6300;SDS011;3183;51.010;6.898;2023-03-14T05:36:05;3.77;;;0.70;;
6300;SDS011;3183;51.010;6.898;2023-03-14T05:38:33;2.47;;;0.53;;
6300;SDS011;3183;51.010;6.898;2023-03-14T05:41:00;4.03;;;0.73;;
6300;SDS011;3183;51.010;6.898;2023-03-14T05:43:28;4.37;;;0.80;;
6300;SDS011;3183;51.010;6.898;2023-03-14T05:45:55;3.70;;;0.57;;
6300;SDS011;3183;51.010;6.898;2023-03-14T05:48:22;1.43;;;0.50;;
6300;SDS011;3183;51.010;6.898;2023-03-14T05:50:53;2.90;;;0.83;;
6300;SDS011;3183;51.010;6.898;2023-03-14T05:53:21;3.80;;;0.63;;
6300;SDS011;3183;51.010;6.898;2023-03-14T05:55:51;3.17;;;0.50;;
6300;SDS011;3183;51.010;6.898;2023-03-14T05:58:18;1.30;;;0.60;;
6300;SDS011;3183;51.010;6.898;2023-03-14T06:00:46;4.60;;;0.70;;
6300;SDS011;3183;51.010;6.898;2023-03-14T06:03:13;0.90;;;0.60;;
6300;SDS011;3183;51.010;6.898;2023-03-14T06:05:40;0.60;;;0.40;;
6300;SDS011;3183;51.010;6.898;2023-03-14T06:08:07;8.70;;;0.50;;
6300;SDS011;3183;51.010;6.898;2023-03-14T06:10:35;4.30;;;0.50;;
6300;SDS011;3183;51.010;6.898;2023-03-14T06:13:03;1.57;;;0.47;;
6300;SDS011;3183;51.010;6.898;2023-03-14T06:15:31;1.00;;;0.70;;
6300;SDS011;3183;51.010;6.898;2023-03-14T06:17:58;2.40;;;0.70;;
6300;SDS011;3183;51.010;6.898;2023-03-14T06:20:25;1.67;;;0.77;;
6300;SDS011;3183;51.010;6.898;2023-03-14T06:22:52;1.97;;;0.43;;
6300;SDS011;3183;51.010;6.898;2023-03-14T06:25:20;4.90;;;0.50;;
6300;SDS011;3183;51.010;6.898;2023-03-14T06:27:47;2.30;;;0.60;;
6300;SDS011;3183;51.010;6.898;2023-03-14T06:30:16;2.40;;;0.47;;
6300;SDS011;3183;51.010;6.898;2023-03-14T06:32:43;0.70;;;0.40;;
6300;SDS011;3183;51.010;6.898;2023-03-14T06:35:10;1.43;;;0.77;;
6300;SDS011;3183;51.010;6.898;2023-03-14T06:37:37;4.30;;;0.80;;
6300;SDS011;3183;51.010;6.898;2023-03-14T06:40:05;0.90;;;0.50;;
6300;SDS011;3183;51.010;6.898;2023-03-14T06:42:33;0.90;;;0.50;;
6300;SDS011;3183;51.010;6.898;2023-03-14T06:45:00;0.90;;;0.67;;
6300;SDS011;3183;51.010;6.898;2023-03-14T06:47:29;6.23;;;0.60;;
6300;SDS011;3183;51.010;6.898;2023-03-14T06:49:56;0.70;;;0.40;;
6300;SDS011;3183;51.010;6.898;2023-03-14T06:52:23;2.30;;;0.50;;
6300;SDS011;3183;51.010;6.898;2023-03-14T06:54:50;1.00;;;0.53;;
6300;SDS011;3183;51.010;6.898;2023-03-14T06:57:17;2.30;;;0.83;;
6300;SDS011;3183;51.010;6.898;2023-03-14T06:59:45;1.27;;;0.70;;
6300;SDS011;3183;51.010;6.898;2023-03-14T07:02:12;1.10;;;0.50;;
6300;SDS011;3183;51.010;6.898;2023-03-14T07:04:40;0.80;;;0.60;;
6300;SDS011;3183;51.010;6.898;2023-03-14T07:07:08;2.00;;;0.50;;
6300;SDS011;3183;51.010;6.898;2023-03-14T07:09:35;2.60;;;0.67;;
6300;SDS011;3183;51.010;6.898;2023-03-14T07:12:02;2.33;;;0.50;;
6300;SDS011;3183;51.010;6.898;2023-03-14T07:14:30;1.20;;;0.53;;
6300;SDS011;3183;51.010;6.898;2023-03-14T07:16:57;1.43;;;0.50;;
6300;SDS011;3183;51.010;6.898;2023-03-14T07:19:24;0.97;;;0.47;;
6300;SDS011;3183;51.010;6.898;2023-03-14T07:21:52;1.60;;;0.57;;
6300;SDS011;3183;51.010;6.898;2023-03-14T07:24:20;0.70;;;0.40;;
6300;SDS011;3183;51.010;6.898;2023-03-14T07:26:49;0.70;;;0.40;;
6300;SDS011;3183;51.010;6.898;2023-03-14T07:29:16;1.00;;;0.47;;
6300;SDS011;3183;51.010;6.898;2023-03-14T07:31:43;2.93;;;0.40;;
6300;SDS011;3183;51.010;6.898;2023-03-14T07:34:10;2.30;;;0.60;;
6300;SDS011;3183;51.010;6.898;2023-03-14T07:36:37;0.80;;;0.50;;
6300;SDS011;3183;51.010;6.898;2023-03-14T07:39:06;1.10;;;0.60;;
6300;SDS011;3183;51.010;6.898;2023-03-14T07:41:33;1.00;;;0.40;;
6300;SDS011;3183;51.010;6.898;2023-03-14T07:44:01;1.43;;;0.50;;
6300;SDS011;3183;51.010;6.898;2023-03-14T07:46:28;1.00;;;0.50;;
6300;SDS011;3183;51.010;6.898;2023-03-14T07:48:55;2.47;;;0.50;;
6300;SDS011;3183;51.010;6.898;2023-03-14T07:51:22;0.90;;;0.70;;
6300;SDS011;3183;51.010;6.898;2023-03-14T07:53:49;1.37;;;0.80;;
6300;SDS011;3183;51.010;6.898;2023-03-14T07:56:18;0.80;;;0.33;;
6300;SDS011;3183;51.010;6.898;2023-03-14T07:58:45;0.90;;;0.50;;
6300;SDS011;3183;51.010;6.898;2023-03-14T08:01:12;0.90;;;0.50;;
6300;SDS011;3183;51.010;6.898;2023-03-14T08:03:39;1.47;;;0.77;;
6300;SDS011;3183;51.010;6.898;2023-03-14T08:06:07;1.10;;;0.40;;
6300;SDS011;3183;51.010;6.898;2023-03-14T08:08:34;2.80;;;0.50;;
6300;SDS011;3183;51.010;6.898;2023-03-14T08:11:02;0.90;;;0.53;;
6300;SDS011;3183;51.010;6.898;2023-03-14T08:13:31;2.30;;;0.50;;
6300;SDS011;3183;51.010;6.898;2023-03-14T08:15:58;4.27;;;0.63;;
6300;SDS011;3183;51.010;6.898;2023-03-14T08:18:25;0.80;;;0.40;;
6300;SDS011;3183;51.010;6.898;2023-03-14T08:20:53;1.10;;;0.40;;
6300;SDS011;3183;51.010;6.898;2023-03-14T08:23:20;1.00;;;0.60;;
6300;SDS011;3183;51.010;6.898;2023-03-14T08:25:48;0.90;;;0.70;;
6300;SDS011;3183;51.010;6.898;2023-03-14T08:28:15;0.70;;;0.40;;
6300;SDS011;3183;51.010;6.898;2023-03-14T08:30:44;6.13;;;0.90;;
6300;SDS011;3183;51.010;6.898;2023-03-14T08:33:11;0.90;;;0.50;;
6300;SDS011;3183;51.010;6.898;2023-03-14T08:35:38;0.83;;;0.50;;
6300;SDS011;3183;51.010;6.898;2023-03-14T08:38:05;1.00;;;0.40;;
6300;SDS011;3183;51.010;6.898;2023-03-14T08:40:33;1.10;;;0.50;;
6300;SDS011;3183;51.010;6.898;2023-03-14T08:43:00;1.60;;;0.70;;
6300;SDS011;3183;51.010;6.898;2023-03-14T08:45:27;0.90;;;0.40;;
6300;SDS011;3183;51.010;6.898;2023-03-14T08:47:56;0.80;;;0.50;;
6300;SDS011;3183;51.010;6.898;2023-03-14T08:50:24;1.80;;;0.57;;
6300;SDS011;3183;51.010;6.898;2023-03-14T08:52:51;0.80;;;0.70;;
6300;SDS011;3183;51.010;6.898;2023-03-14T08:55:18;1.10;;;0.97;;
6300;SDS011;3183;51.010;6.898;2023-03-14T08:57:45;2.73;;;0.67;;
6300;SDS011;3183;51.010;6.898;2023-03-14T09:00:13;5.80;;;0.70;;
6300;SDS011;3183;51.010;6.898;2023-03-14T09:02:40;1.67;;;0.67;;
6300;SDS011;3183;51.010;6.898;2023-03-14T09:05:09;1.00;;;0.63;;
6300;SDS011;3183;51.010;6.898;2023-03-14T09:07:37;1.87;;;0.90;;
6300;SDS011;3183;51.010;6.898;2023-03-14T09:10:04;2.10;;;0.80;;
6300;SDS011;3183;51.010;6.898;2023-03-14T09:12:31;4.00;;;1.00;;
6300;SDS011;3183;51.010;6.898;2023-03-14T09:14:59;1.17;;;0.90;;
6300;SDS011;3183;51.010;6.898;2023-03-14T09:17:26;3.37;;;1.20;;
6300;SDS011;3183;51.010;6.898;2023-03-14T09:19:53;0.87;;;0.67;;
6300;SDS011;3183;51.010;6.898;2023-03-14T09:22:21;1.97;;;0.70;;
6300;SDS011;3183;51.010;6.898;2023-03-14T09:24:49;2.70;;;0.67;;
6300;SDS011;3183;51.010;6.898;2023-03-14T09:27:16;0.90;;;0.60;;
6300;SDS011;3183;51.010;6.898;2023-03-14T09:29:43;3.40;;;0.90;;
6300;SDS011;3183;51.010;6.898;2023-03-14T09:32:10;0.93;;;0.50;;
6300;SDS011;3183;51.010;6.898;2023-03-14T09:34:37;3.23;;;0.70;;
6300;SDS011;3183;51.010;6.898;2023-03-14T09:37:04;1.43;;;0.80;;
6300;SDS011;3183;51.010;6.898;2023-03-14T09:39:33;5.27;;;0.73;;
6300;SDS011;3183;51.010;6.898;2023-03-14T09:42:01;1.30;;;0.70;;
6300;SDS011;3183;51.010;6.898;2023-03-14T09:44:30;2.60;;;1.13;;
6300;SDS011;3183;51.010;6.898;2023-03-14T09:47:00;4.03;;;0.70;;
6300;SDS011;3183;51.010;6.898;2023-03-14T09:49:28;1.07;;;0.90;;
6300;SDS011;3183;51.010;6.898;2023-03-14T09:51:57;0.93;;;0.83;;
6300;SDS011;3183;51.010;6.898;2023-03-14T09:54:28;0.80;;;0.73;;
6300;SDS011;3183;51.010;6.898;2023-03-14T09:56:58;1.07;;;0.93;;
6300;SDS011;3183;51.010;6.898;2023-03-14T09:59:25;1.23;;;1.00;;
6300;SDS011;3183;51.010;6.898;2023-03-14T10:01:54;3.33;;;1.10;;
6300;SDS011;3183;51.010;6.898;2023-03-14T10:04:22;1.13;;;0.80;;
6300;SDS011;3183;51.010;6.898;2023-03-14T10:06:49;1.43;;;1.00;;
6300;SDS011;3183;51.010;6.898;2023-03-14T10:09:17;9.30;;;1.13;;
6300;SDS011;3183;51.010;6.898;2023-03-14T10:11:50;1.20;;;0.90;;
6300;SDS011;3183;51.010;6.898;2023-03-14T10:14:28;2.77;;;1.50;;
6300;SDS011;3183;51.010;6.898;2023-03-14T10:16:55;1.20;;;0.87;;
6300;SDS011;3183;51.010;6.898;2023-03-14T10:19:30;1.20;;;1.10;;
6300;SDS011;3183;51.010;6.898;2023-03-14T10:22:00;2.20;;;1.23;;
6300;SDS011;3183;51.010;6.898;2023-03-14T10:24:28;1.73;;;1.50;;
6300;SDS011;3183;51.010;6.898;2023-03-14T10:26:57;2.53;;;1.93;;
6300;SDS011;3183;51.010;6.898;2023-03-14T10:29:27;3.80;;;2.00;;
6300;SDS011;3183;51.010;6.898;2023-03-14T10:31:57;2.87;;;1.83;;
6300;SDS011;3183;51.010;6.898;2023-03-14T10:34:26;2.10;;;1.33;;
6300;SDS011;3183;51.010;6.898;2023-03-14T10:36:55;1.93;;;1.30;;
6300;SDS011;3183;51.010;6.898;2023-03-14T10:39:34;1.60;;;1.33;;
6300;SDS011;3183;51.010;6.898;2023-03-14T10:42:05;2.07;;;1.53;;
6300;SDS011;3183;51.010;6.898;2023-03-14T10:44:35;3.10;;;1.73;;
6300;SDS011;3183;51.010;6.898;2023-03-14T10:47:03;4.30;;;2.00;;
6300;SDS011;3183;51.010;6.898;2023-03-14T10:49:31;2.30;;;1.57;;
6300;SDS011;3183;51.010;6.898;2023-03-14T10:52:10;2.70;;;1.70;;
6300;SDS011;3183;51.010;6.898;2023-03-14T10:54:39;2.93;;;1.60;;
6300;SDS011;3183;51.010;6.898;2023-03-14T10:57:10;2.00;;;1.80;;
6300;SDS011;3183;51.010;6.898;2023-03-14T10:59:40;1.47;;;1.17;;
6300;SDS011;3183;51.010;6.898;2023-03-14T11:02:13;4.00;;;1.13;;
6300;SDS011;3183;51.010;6.898;2023-03-14T11:04:49;1.13;;;1.03;;
6300;SDS011;3183;51.010;6.898;2023-03-14T11:07:21;4.40;;;1.30;;
6300;SDS011;3183;51.010;6.898;2023-03-14T11:09:52;2.60;;;1.03;;
6300;SDS011;3183;51.010;6.898;2023-03-14T11:12:27;3.03;;;1.00;;
6300;SDS011;3183;51.010;6.898;2023-03-14T11:14:59;2.10;;;0.80;;
6300;SDS011;3183;51.010;6.898;2023-03-14T11:17:30;3.00;;;1.10;;
6300;SDS011;3183;51.010;6.898;2023-03-14T11:20:09;1.33;;;1.20;;
6300;SDS011;3183;51.010;6.898;2023-03-14T11:22:41;1.20;;;1.00;;
6300;SDS011;3183;51.010;6.898;2023-03-14T11:25:15;2.70;;;0.90;;
6300;SDS011;3183;51.010;6.898;2023-03-14T11:27:46;2.43;;;1.17;;
6300;SDS011;3183;51.010;6.898;2023-03-14T11:30:21;4.40;;;1.77;;
6300;SDS011;3183;51.010;6.898;2023-03-14T11:32:52;2.80;;;1.37;;
6300;SDS011;3183;51.010;6.898;2023-03-14T11:35:22;1.10;;;0.60;;
6300;SDS011;3183;51.010;6.898;2023-03-14T11:37:52;2.90;;;0.67;;
6300;SDS011;3183;51.010;6.898;2023-03-14T11:40:20;0.97;;;0.60;;
6300;SDS011;3183;51.010;6.898;2023-03-14T11:42:49;2.53;;;0.80;;
6300;SDS011;3183;51.010;6.898;2023-03-14T11:45:18;1.63;;;0.90;;
6300;SDS011;3183;51.010;6.898;2023-03-14T11:47:49;1.20;;;0.73;;
6300;SDS011;3183;51.010;6.898;2023-03-14T11:50:19;3.07;;;1.23;;
6300;SDS011;3183;51.010;6.898;2023-03-14T11:52:49;3.33;;;1.50;;
6300;SDS011;3183;51.010;6.898;2023-03-14T11:55:19;1.00;;;0.80;;
6300;SDS011;3183;51.010;6.898;2023-03-14T11:57:47;1.00;;;0.90;;
6300;SDS011;3183;51.010;6.898;2023-03-14T12:00:16;3.67;;;0.93;;
6300;SDS011;3183;51.010;6.898;2023-03-14T12:02:46;1.53;;;1.00;;
6300;SDS011;3183;51.010;6.898;2023-03-14T12:08:19;4.00;;;1.07;;
6300;SDS011;3183;51.010;6.898;2023-03-14T12:10:48;3.27;;;1.40;;
6300;SDS011;3183;51.010;6.898;2023-03-14T12:13:16;3.40;;;1.50;;
6300;SDS011;3183;51.010;6.898;2023-03-14T12:15:46;4.73;;;1.10;;
6300;SDS011;3183;51.010;6.898;2023-03-14T12:18:18;1.47;;;1.10;;
6300;SDS011;3183;51.010;6.898;2023-03-14T12:20:50;3.27;;;1.10;;
6300;SDS011;3183;51.010;6.898;2023-03-14T12:23:19;3.43;;;1.30;;
6300;SDS011;3183;51.010;6.898;2023-03-14T12:25:47;1.30;;;0.90;;
6300;SDS011;3183;51.010;6.898;2023-03-14T12:28:18;6.93;;;2.17;;
6300;SDS011;3183;51.010;6.898;2023-03-14T12:30:45;2.03;;;1.00;;
6300;SDS011;3183;51.010;6.898;2023-03-14T12:36:02;2.60;;;0.93;;
6300;SDS011;3183;51.010;6.898;2023-03-14T12:38:37;6.53;;;0.90;;
6300;SDS011;3183;51.010;6.898;2023-03-14T12:41:11;3.00;;;0.90;;
6300;SDS011;3183;51.010;6.898;2023-03-14T12:43:40;4.03;;;1.10;;
6300;SDS011;3183;51.010;6.898;2023-03-14T12:46:08;3.00;;;1.90;;
6300;SDS011;3183;51.010;6.898;2023-03-14T12:48:37;2.73;;;1.80;;
6300;SDS011;3183;51.010;6.898;2023-03-14T12:51:05;6.23;;;2.47;;
6300;SDS011;3183;51.010;6.898;2023-03-14T12:53:46;5.97;;;1.77;;
6300;SDS011;3183;51.010;6.898;2023-03-14T12:56:27;2.00;;;1.23;;
6300;SDS011;3183;51.010;6.898;2023-03-14T13:01:53;6.83;;;1.73;;
6300;SDS011;3183;51.010;6.898;2023-03-14T13:04:25;3.37;;;1.00;;
6300;SDS011;3183;51.010;6.898;2023-03-14T13:06:54;2.30;;;0.90;;
6300;SDS011;3183;51.010;6.898;2023-03-14T13:12:18;4.60;;;1.00;;
6300;SDS011;3183;51.010;6.898;2023-03-14T13:14:49;7.03;;;1.40;;
6300;SDS011;3183;51.010;6.898;2023-03-14T13:17:20;3.20;;;1.10;;
6300;SDS011;3183;51.010;6.898;2023-03-14T13:19:50;2.00;;;1.23;;
6300;SDS011;3183;51.010;6.898;2023-03-14T13:22:21;4.60;;;1.57;;
6300;SDS011;3183;51.010;6.898;2023-03-14T13:24:48;7.43;;;1.30;;
6300;SDS011;3183;51.010;6.898;2023-03-14T13:27:17;15.13;;;1.80;;
6300;SDS011;3183;51.010;6.898;2023-03-14T13:29:48;5.07;;;1.13;;
6300;SDS011;3183;51.010;6.898;2023-03-14T13:32:16;1.33;;;0.60;;
6300;SDS011;3183;51.010;6.898;2023-03-14T13:34:44;5.57;;;1.17;;
6300;SDS011;3183;51.010;6.898;2023-03-14T13:37:15;2.27;;;0.90;;
6300;SDS011;3183;51.010;6.898;2023-03-14T13:39:42;2.33;;;1.00;;
6300;SDS011;3183;51.010;6.898;2023-03-14T13:42:10;4.93;;;1.77;;
6300;SDS011;3183;51.010;6.898;2023-03-14T13:44:41;4.00;;;1.30;;
6300;SDS011;3183;51.010;6.898;2023-03-14T13:47:12;5.80;;;1.40;;
6300;SDS011;3183;51.010;6.898;2023-03-14T13:49:41;6.03;;;1.70;;
6300;SDS011;3183;51.010;6.898;2023-03-14T13:52:28;5.83;;;1.80;;
6300;SDS011;3183;51.010;6.898;2023-03-14T13:54:55;8.33;;;1.93;;
6300;SDS011;3183;51.010;6.898;2023-03-14T13:57:22;17.70;;;2.43;;
6300;SDS011;3183;51.010;6.898;2023-03-14T14:00:01;9.93;;;2.43;;
6300;SDS011;3183;51.010;6.898;2023-03-14T14:02:31;13.37;;;2.53;;
6300;SDS011;3183;51.010;6.898;2023-03-14T14:04:58;9.90;;;2.50;;
6300;SDS011;3183;51.010;6.898;2023-03-14T14:07:26;12.33;;;3.17;;
6300;SDS011;3183;51.010;6.898;2023-03-14T14:09:53;14.93;;;3.13;;
6300;SDS011;3183;51.010;6.898;2023-03-14T14:12:21;11.83;;;3.17;;
6300;SDS011;3183;51.010;6.898;2023-03-14T14:14:50;11.80;;;2.00;;
6300;SDS011;3183;51.010;6.898;2023-03-14T14:17:20;23.57;;;3.73;;
6300;SDS011;3183;51.010;6.898;2023-03-14T14:19:48;10.20;;;2.97;;
6300;SDS011;3183;51.010;6.898;2023-03-14T14:22:16;5.80;;;2.10;;
6300;SDS011;3183;51.010;6.898;2023-03-14T14:24:44;12.07;;;2.53;;
6300;SDS011;3183;51.010;6.898;2023-03-14T14:27:13;11.23;;;3.77;;
6300;SDS011;3183;51.010;6.898;2023-03-14T14:29:40;12.23;;;2.20;;
6300;SDS011;3183;51.010;6.898;2023-03-14T14:32:11;15.47;;;3.60;;
6300;SDS011;3183;51.010;6.898;2023-03-14T14:34:42;6.60;;;1.80;;
6300;SDS011;3183;51.010;6.898;2023-03-14T14:37:18;9.47;;;2.10;;
6300;SDS011;3183;51.010;6.898;2023-03-14T14:39:45;13.40;;;3.20;;
6300;SDS011;3183;51.010;6.898;2023-03-14T14:42:13;13.03;;;1.97;;
6300;SDS011;3183;51.010;6.898;2023-03-14T14:44:41;16.50;;;2.90;;
6300;SDS011;3183;51.010;6.898;2023-03-14T14:47:12;16.50;;;2.33;;
6300;SDS011;3183;51.010;6.898;2023-03-14T14:49:40;13.87;;;2.10;;
6300;SDS011;3183;51.010;6.898;2023-03-14T14:52:10;14.70;;;2.73;;
6300;SDS011;3183;51.010;6.898;2023-03-14T14:54:38;20.13;;;2.43;;
6300;SDS011;3183;51.010;6.898;2023-03-14T14:57:06;19.10;;;2.43;;
6300;SDS011;3183;51.010;6.898;2023-03-14T14:59:42;19.30;;;2.73;;
6300;SDS011;3183;51.010;6.898;2023-03-14T15:02:22;18.53;;;3.70;;
6300;SDS011;3183;51.010;6.898;2023-03-14T15:04:52;11.50;;;2.80;;
6300;SDS011;3183;51.010;6.898;2023-03-14T15:07:20;23.03;;;2.80;;
6300;SDS011;3183;51.010;6.898;2023-03-14T15:09:47;11.53;;;2.03;;
6300;SDS011;3183;51.010;6.898;2023-03-14T15:12:14;8.93;;;2.10;;
6300;SDS011;3183;51.010;6.898;2023-03-14T15:14:41;22.50;;;3.10;;
6300;SDS011;3183;51.010;6.898;2023-03-14T15:17:09;17.47;;;2.57;;
6300;SDS011;3183;51.010;6.898;2023-03-14T15:19:37;13.33;;;2.43;;
6300;SDS011;3183;51.010;6.898;2023-03-14T15:22:07;19.73;;;2.57;;
6300;SDS011;3183;51.010;6.898;2023-03-14T15:24:35;13.53;;;2.17;;
6300;SDS011;3183;51.010;6.898;2023-03-14T15:27:03;13.87;;;2.80;;
6300;SDS011;3183;51.010;6.898;2023-03-14T15:29:31;15.83;;;3.30;;
6300;SDS011;3183;51.010;6.898;2023-03-14T15:31:59;21.77;;;2.93;;